sensor_id;sensor_type;location;lat;lon;timestamp;pressure;altitude;pressure_sealevel;temperature;humidity
75051;BME280;63628;47.656;11.310;2023-04-30T00:01:25;94926.28;;;14.34;72.58
75051;BME280;63628;47.656;11.310;2023-04-30T00:03:53;94924.44;;;14.34;72.39
75051;BME280;63628;47.656;11.310;2023-04-30T00:06:20;94922.06;;;14.38;72.21
75051;BME280;63628;47.656;11.310;2023-04-30T00:08:47;94924.72;;;14.38;72.38
75051;BME280;63628;47.656;11.310;2023-04-30T00:11:13;94926.59;;;14.37;72.11
75051;BME280;63628;47.656;11.310;2023-04-30T00:13:40;94933.47;;;14.33;72.26
75051;BME280;63628;47.656;11.310;2023-04-30T00:16:08;94932.34;;;14.29;72.68
75051;BME280;63628;47.656;11.310;2023-04-30T00:18:35;94932.28;;;14.24;72.82
75051;BME280;63628;47.656;11.310;2023-04-30T00:21:04;94937.38;;;14.25;72.74
75051;BME280;63628;47.656;11.310;2023-04-30T00:23:30;94941.09;;;14.24;72.43
75051;BME280;63628;47.656;11.310;2023-04-30T00:25:57;94941.50;;;13.89;73.62
75051;BME280;63628;47.656;11.310;2023-04-30T00:28:23;94947.00;;;13.61;71.42
75051;BME280;63628;47.656;11.310;2023-04-30T00:30:50;94941.84;;;13.32;70.75
75051;BME280;63628;47.656;11.310;2023-04-30T00:33:17;94945.66;;;14.02;73.38
75051;BME280;63628;47.656;11.310;2023-04-30T00:35:43;94943.13;;;13.90;70.71
75051;BME280;63628;47.656;11.310;2023-04-30T00:38:13;94942.13;;;13.53;71.46
75051;BME280;63628;47.656;11.310;2023-04-30T00:40:40;94941.69;;;14.05;73.03
75051;BME280;63628;47.656;11.310;2023-04-30T00:43:07;94936.41;;;14.10;72.75
75051;BME280;63628;47.656;11.310;2023-04-30T00:45:34;94948.41;;;14.12;72.55
75051;BME280;63628;47.656;11.310;2023-04-30T00:48:01;94935.34;;;14.11;72.84
75051;BME280;63628;47.656;11.310;2023-04-30T00:50:28;94948.78;;;14.21;72.65
75051;BME280;63628;47.656;11.310;2023-04-30T00:52:55;94948.41;;;14.12;72.67
75051;BME280;63628;47.656;11.310;2023-04-30T00:55:24;94958.00;;;14.13;73.01
75051;BME280;63628;47.656;11.310;2023-04-30T00:57:50;94946.84;;;14.16;72.62
75051;BME280;63628;47.656;11.310;2023-04-30T01:00:20;94954.91;;;14.21;72.51
75051;BME280;63628;47.656;11.310;2023-04-30T01:02:48;94961.03;;;14.22;72.42
75051;BME280;63628;47.656;11.310;2023-04-30T01:05:15;94959.41;;;14.21;72.53
75051;BME280;63628;47.656;11.310;2023-04-30T01:07:42;94960.41;;;14.15;72.35
75051;BME280;63628;47.656;11.310;2023-04-30T01:10:12;94965.19;;;14.13;72.48
75051;BME280;63628;47.656;11.310;2023-04-30T01:12:45;94959.38;;;14.16;72.27
75051;BME280;63628;47.656;11.310;2023-04-30T01:15:21;94965.19;;;14.13;72.70
75051;BME280;63628;47.656;11.310;2023-04-30T01:17:55;94964.44;;;14.17;72.67
75051;BME280;63628;47.656;11.310;2023-04-30T01:20:23;94966.28;;;14.17;72.06
75051;BME280;63628;47.656;11.310;2023-04-30T01:22:55;94965.69;;;14.10;72.34
75051;BME280;63628;47.656;11.310;2023-04-30T01:28:26;94970.22;;;14.09;72.08
75051;BME280;63628;47.656;11.310;2023-04-30T01:30:53;94968.97;;;14.17;72.36
75051;BME280;63628;47.656;11.310;2023-04-30T01:33:20;94965.88;;;14.03;72.38
75051;BME280;63628;47.656;11.310;2023-04-30T01:36:13;94969.41;;;14.09;72.42
75051;BME280;63628;47.656;11.310;2023-04-30T01:39:05;94966.94;;;14.02;72.29
75051;BME280;63628;47.656;11.310;2023-04-30T01:41:39;94973.13;;;14.08;72.07
75051;BME280;63628;47.656;11.310;2023-04-30T01:44:25;94967.84;;;14.13;72.39
75051;BME280;63628;47.656;11.310;2023-04-30T01:46:59;94969.13;;;13.83;73.22
75051;BME280;63628;47.656;11.310;2023-04-30T01:49:38;94971.16;;;13.98;72.44
75051;BME280;63628;47.656;11.310;2023-04-30T01:52:13;94962.34;;;13.98;72.68
75051;BME280;63628;47.656;11.310;2023-04-30T01:54:44;94958.09;;;13.96;72.43
75051;BME280;63628;47.656;11.310;2023-04-30T01:57:15;94965.81;;;13.98;72.80
75051;BME280;63628;47.656;11.310;2023-04-30T01:59:45;94957.38;;;13.79;72.65
75051;BME280;63628;47.656;11.310;2023-04-30T02:02:12;94953.75;;;13.90;72.67
75051;BME280;63628;47.656;11.310;2023-04-30T02:04:39;94956.47;;;13.95;72.37
75051;BME280;63628;47.656;11.310;2023-04-30T02:07:05;94962.59;;;13.96;72.75
75051;BME280;63628;47.656;11.310;2023-04-30T02:09:32;94960.81;;;14.02;72.41
75051;BME280;63628;47.656;11.310;2023-04-30T02:11:58;94958.91;;;13.97;72.34
75051;BME280;63628;47.656;11.310;2023-04-30T02:14:26;94958.84;;;13.92;72.63
75051;BME280;63628;47.656;11.310;2023-04-30T02:16:54;94964.16;;;13.92;72.57
75051;BME280;63628;47.656;11.310;2023-04-30T02:19:20;94962.00;;;13.89;72.49
75051;BME280;63628;47.656;11.310;2023-04-30T02:21:47;94965.16;;;13.86;72.65
75051;BME280;63628;47.656;11.310;2023-04-30T02:24:13;94965.16;;;13.86;72.83
75051;BME280;63628;47.656;11.310;2023-04-30T02:26:40;94970.53;;;13.91;72.28
75051;BME280;63628;47.656;11.310;2023-04-30T02:29:07;94968.97;;;13.95;72.06
75051;BME280;63628;47.656;11.310;2023-04-30T02:31:33;94965.75;;;13.93;72.16
75051;BME280;63628;47.656;11.310;2023-04-30T02:34:01;94963.84;;;13.88;72.53
75051;BME280;63628;47.656;11.310;2023-04-30T02:36:28;94964.34;;;13.85;72.29
75051;BME280;63628;47.656;11.310;2023-04-30T02:38:55;94964.03;;;13.82;72.55
75051;BME280;63628;47.656;11.310;2023-04-30T02:41:21;94968.56;;;13.81;72.63
75051;BME280;63628;47.656;11.310;2023-04-30T02:43:48;94961.69;;;13.85;72.79
75051;BME280;63628;47.656;11.310;2023-04-30T02:46:14;94957.13;;;13.81;72.53
75051;BME280;63628;47.656;11.310;2023-04-30T02:48:41;94955.50;;;13.80;72.75
75051;BME280;63628;47.656;11.310;2023-04-30T02:51:09;94960.28;;;13.78;72.57
75051;BME280;63628;47.656;11.310;2023-04-30T02:53:36;94955.19;;;13.76;72.72
75051;BME280;63628;47.656;11.310;2023-04-30T02:56:03;94956.00;;;13.77;71.43
75051;BME280;63628;47.656;11.310;2023-04-30T02:58:30;94951.50;;;13.77;72.50
75051;BME280;63628;47.656;11.310;2023-04-30T03:00:56;94958.22;;;13.08;72.78
75051;BME280;63628;47.656;11.310;2023-04-30T03:03:23;94953.94;;;13.62;72.93
75051;BME280;63628;47.656;11.310;2023-04-30T03:05:50;94956.75;;;13.72;72.71
75051;BME280;63628;47.656;11.310;2023-04-30T03:08:18;94959.16;;;13.74;72.29
75051;BME280;63628;47.656;11.310;2023-04-30T03:10:44;94959.66;;;13.71;72.41
75051;BME280;63628;47.656;11.310;2023-04-30T03:13:11;94958.84;;;13.70;72.71
75051;BME280;63628;47.656;11.310;2023-04-30T03:15:37;94962.81;;;13.68;72.46
75051;BME280;63628;47.656;11.310;2023-04-30T03:18:04;94966.59;;;13.72;72.50
75051;BME280;63628;47.656;11.310;2023-04-30T03:20:31;94967.44;;;13.77;71.99
75051;BME280;63628;47.656;11.310;2023-04-30T03:22:57;94967.94;;;13.74;72.16
75051;BME280;63628;47.656;11.310;2023-04-30T03:25:25;94968.75;;;13.75;71.88
75051;BME280;63628;47.656;11.310;2023-04-30T03:27:52;94965.78;;;13.71;72.12
75051;BME280;63628;47.656;11.310;2023-04-30T03:30:19;94975.38;;;13.72;72.03
75051;BME280;63628;47.656;11.310;2023-04-30T03:32:45;94968.59;;;13.64;72.40
75051;BME280;63628;47.656;11.310;2023-04-30T03:35:12;94968.84;;;13.63;72.60
75051;BME280;63628;47.656;11.310;2023-04-30T03:37:39;94968.53;;;13.59;72.30
75051;BME280;63628;47.656;11.310;2023-04-30T03:40:07;94968.78;;;13.58;72.45
75051;BME280;63628;47.656;11.310;2023-04-30T03:42:35;94966.97;;;13.63;72.17
75051;BME280;63628;47.656;11.310;2023-04-30T03:45:01;94965.13;;;13.64;72.36
75051;BME280;63628;47.656;11.310;2023-04-30T03:47:28;94962.47;;;13.64;72.06
75051;BME280;63628;47.656;11.310;2023-04-30T03:49:55;94953.63;;;13.58;72.50
75051;BME280;63628;47.656;11.310;2023-04-30T03:52:22;94951.03;;;13.63;72.31
75051;BME280;63628;47.656;11.310;2023-04-30T03:54:49;94959.50;;;13.60;72.19
75051;BME280;63628;47.656;11.310;2023-04-30T03:57:15;94956.53;;;13.57;72.32
75051;BME280;63628;47.656;11.310;2023-04-30T03:59:43;94953.13;;;13.61;72.29
75051;BME280;63628;47.656;11.310;2023-04-30T04:02:10;94945.97;;;13.62;71.96
75051;BME280;63628;47.656;11.310;2023-04-30T04:04:37;94951.16;;;12.34;75.12
75051;BME280;63628;47.656;11.310;2023-04-30T04:07:04;94951.63;;;13.27;73.31
75051;BME280;63628;47.656;11.310;2023-04-30T04:09:33;94955.09;;;13.49;72.44
75051;BME280;63628;47.656;11.310;2023-04-30T04:12:00;94952.44;;;13.49;72.44
75051;BME280;63628;47.656;11.310;2023-04-30T04:14:27;94953.25;;;13.50;72.32
75051;BME280;63628;47.656;11.310;2023-04-30T04:16:55;94959.13;;;13.52;71.72
75051;BME280;63628;47.656;11.310;2023-04-30T04:19:23;94956.47;;;13.52;72.16
75051;BME280;63628;47.656;11.310;2023-04-30T04:21:49;94963.06;;;13.49;72.44
75051;BME280;63628;47.656;11.310;2023-04-30T04:24:16;94960.66;;;13.48;72.31
75051;BME280;63628;47.656;11.310;2023-04-30T04:26:43;94968.09;;;13.46;72.71
75051;BME280;63628;47.656;11.310;2023-04-30T04:29:13;94969.63;;;13.42;72.64
75051;BME280;63628;47.656;11.310;2023-04-30T04:31:39;94968.81;;;13.41;72.57
75051;BME280;63628;47.656;11.310;2023-04-30T04:34:09;94967.78;;;13.42;72.33
75051;BME280;63628;47.656;11.310;2023-04-30T04:36:36;94973.41;;;13.46;72.73
75051;BME280;63628;47.656;11.310;2023-04-30T04:39:03;94968.50;;;13.38;71.55
75051;BME280;63628;47.656;11.310;2023-04-30T04:41:30;94969.38;;;13.43;72.19
75051;BME280;63628;47.656;11.310;2023-04-30T04:44:01;94964.06;;;13.43;72.28
75051;BME280;63628;47.656;11.310;2023-04-30T04:46:29;94960.84;;;13.41;72.17
75051;BME280;63628;47.656;11.310;2023-04-30T04:48:56;94965.34;;;13.41;72.35
75051;BME280;63628;47.656;11.310;2023-04-30T04:51:24;94962.06;;;13.33;72.58
75051;BME280;63628;47.656;11.310;2023-04-30T04:53:50;94966.47;;;13.45;72.22
75051;BME280;63628;47.656;11.310;2023-04-30T04:56:17;94963.53;;;13.24;72.46
75051;BME280;63628;47.656;11.310;2023-04-30T04:58:44;94962.00;;;11.64;77.44
75051;BME280;63628;47.656;11.310;2023-04-30T05:01:11;94966.50;;;12.94;71.57
75051;BME280;63628;47.656;11.310;2023-04-30T05:03:37;94969.31;;;12.54;73.95
75051;BME280;63628;47.656;11.310;2023-04-30T05:06:04;94972.63;;;12.78;74.32
75051;BME280;63628;47.656;11.310;2023-04-30T05:08:32;94971.69;;;13.18;73.17
75051;BME280;63628;47.656;11.310;2023-04-30T05:10:59;94971.75;;;13.23;72.61
75051;BME280;63628;47.656;11.310;2023-04-30T05:13:26;94976.59;;;13.26;72.53
75051;BME280;63628;47.656;11.310;2023-04-30T05:15:52;94979.50;;;13.24;72.50
75051;BME280;63628;47.656;11.310;2023-04-30T05:18:19;94991.16;;;13.23;72.19
75051;BME280;63628;47.656;11.310;2023-04-30T05:20:46;94991.97;;;13.24;72.39
75051;BME280;63628;47.656;11.310;2023-04-30T05:23:12;94986.66;;;13.07;72.71
75051;BME280;63628;47.656;11.310;2023-04-30T05:25:40;94990.03;;;13.19;70.03
75051;BME280;63628;47.656;11.310;2023-04-30T05:28:07;94997.06;;;12.63;73.91
75051;BME280;63628;47.656;11.310;2023-04-30T05:30:34;94990.09;;;13.08;73.24
75051;BME280;63628;47.656;11.310;2023-04-30T05:33:00;94988.91;;;13.15;72.49
75051;BME280;63628;47.656;11.310;2023-04-30T05:35:27;94986.81;;;13.17;72.62
75051;BME280;63628;47.656;11.310;2023-04-30T05:37:54;94989.63;;;13.11;72.69
75051;BME280;63628;47.656;11.310;2023-04-30T05:40:20;94985.84;;;13.23;72.13
75051;BME280;63628;47.656;11.310;2023-04-30T05:42:48;94991.44;;;12.60;73.84
75051;BME280;63628;47.656;11.310;2023-04-30T05:45:15;94984.97;;;13.01;73.14
75051;BME280;63628;47.656;11.310;2023-04-30T05:47:42;94989.69;;;12.65;71.24
75051;BME280;63628;47.656;11.310;2023-04-30T05:50:10;94983.78;;;12.47;73.48
75051;BME280;63628;47.656;11.310;2023-04-30T05:52:37;94983.66;;;12.87;73.41
75051;BME280;63628;47.656;11.310;2023-04-30T05:55:04;94987.78;;;13.11;72.61
75051;BME280;63628;47.656;11.310;2023-04-30T05:57:31;94986.25;;;13.15;72.23
75051;BME280;63628;47.656;11.310;2023-04-30T05:59:59;94988.19;;;13.20;72.16
75051;BME280;63628;47.656;11.310;2023-04-30T06:02:26;94981.59;;;13.22;72.09
75051;BME280;63628;47.656;11.310;2023-04-30T06:04:53;94983.44;;;13.05;70.46
75051;BME280;63628;47.656;11.310;2023-04-30T06:07:19;94989.88;;;12.19;75.71
75051;BME280;63628;47.656;11.310;2023-04-30T06:09:46;94992.31;;;11.57;74.87
75051;BME280;63628;47.656;11.310;2023-04-30T06:12:13;94991.88;;;11.48;75.39
75051;BME280;63628;47.656;11.310;2023-04-30T06:14:39;94986.22;;;11.80;75.42
75051;BME280;63628;47.656;11.310;2023-04-30T06:17:12;94983.25;;;12.61;72.32
75051;BME280;63628;47.656;11.310;2023-04-30T06:19:39;94986.59;;;11.48;76.67
75051;BME280;63628;47.656;11.310;2023-04-30T06:22:06;94987.41;;;11.02;78.33
75051;BME280;63628;47.656;11.310;2023-04-30T06:24:32;94991.88;;;10.90;79.85
75051;BME280;63628;47.656;11.310;2023-04-30T06:26:59;94993.81;;;10.71;80.29
75051;BME280;63628;47.656;11.310;2023-04-30T06:29:26;94991.66;;;10.91;79.38
75051;BME280;63628;47.656;11.310;2023-04-30T06:31:53;94987.97;;;11.04;79.76
75051;BME280;63628;47.656;11.310;2023-04-30T06:34:21;94981.19;;;12.06;76.33
75051;BME280;63628;47.656;11.310;2023-04-30T06:36:48;94975.84;;;12.35;72.39
75051;BME280;63628;47.656;11.310;2023-04-30T06:39:15;94985.63;;;12.18;72.86
75051;BME280;63628;47.656;11.310;2023-04-30T06:41:42;94985.91;;;12.61;74.08
75051;BME280;63628;47.656;11.310;2023-04-30T06:44:09;94982.91;;;12.75;73.47
75051;BME280;63628;47.656;11.310;2023-04-30T06:46:35;94989.69;;;11.57;74.77
75051;BME280;63628;47.656;11.310;2023-04-30T06:49:02;94992.19;;;10.70;79.83
75051;BME280;63628;47.656;11.310;2023-04-30T06:51:30;94991.31;;;10.99;78.22
75051;BME280;63628;47.656;11.310;2023-04-30T06:53:57;94984.81;;;12.17;75.65
75051;BME280;63628;47.656;11.310;2023-04-30T06:56:24;94986.53;;;12.52;72.84
75051;BME280;63628;47.656;11.310;2023-04-30T06:58:50;94989.19;;;12.68;73.47
75051;BME280;63628;47.656;11.310;2023-04-30T07:01:17;94983.31;;;11.93;72.65
75051;BME280;63628;47.656;11.310;2023-04-30T07:03:44;94985.41;;;10.62;79.57
75051;BME280;63628;47.656;11.310;2023-04-30T07:06:11;94984.44;;;11.10;76.45
75051;BME280;63628;47.656;11.310;2023-04-30T07:08:38;94982.69;;;11.16;78.42
75051;BME280;63628;47.656;11.310;2023-04-30T07:11:06;94982.63;;;11.74;77.45
75051;BME280;63628;47.656;11.310;2023-04-30T07:13:33;94978.88;;;12.55;74.75
75051;BME280;63628;47.656;11.310;2023-04-30T07:16:00;94971.09;;;12.65;74.19
75051;BME280;63628;47.656;11.310;2023-04-30T07:18:26;94976.72;;;12.69;74.06
75051;BME280;63628;47.656;11.310;2023-04-30T07:20:53;94977.84;;;12.73;73.89
75051;BME280;63628;47.656;11.310;2023-04-30T07:23:20;94975.66;;;12.53;72.91
75051;BME280;63628;47.656;11.310;2023-04-30T07:25:48;94973.34;;;12.57;74.26
75051;BME280;63628;47.656;11.310;2023-04-30T07:28:15;94966.66;;;12.71;73.99
75051;BME280;63628;47.656;11.310;2023-04-30T07:30:41;94967.00;;;12.75;73.86
75051;BME280;63628;47.656;11.310;2023-04-30T07:33:08;94972.06;;;12.76;73.71
75051;BME280;63628;47.656;11.310;2023-04-30T07:35:35;94970.22;;;12.77;73.85
75051;BME280;63628;47.656;11.310;2023-04-30T07:38:02;94963.28;;;12.59;75.62
75051;BME280;63628;47.656;11.310;2023-04-30T07:40:30;94962.38;;;12.36;75.38
75051;BME280;63628;47.656;11.310;2023-04-30T07:43:03;94961.41;;;12.14;75.31
75051;BME280;63628;47.656;11.310;2023-04-30T07:45:30;94961.09;;;11.59;77.63
75051;BME280;63628;47.656;11.310;2023-04-30T07:47:59;94960.34;;;11.98;76.40
75051;BME280;63628;47.656;11.310;2023-04-30T07:50:26;94963.38;;;11.90;75.67
75051;BME280;63628;47.656;11.310;2023-04-30T07:52:55;94961.59;;;12.53;74.94
75051;BME280;63628;47.656;11.310;2023-04-30T07:55:21;94956.28;;;12.69;74.07
75051;BME280;63628;47.656;11.310;2023-04-30T07:57:48;94956.06;;;11.97;75.76
75051;BME280;63628;47.656;11.310;2023-04-30T08:00:16;94966.00;;;11.15;76.05
75051;BME280;63628;47.656;11.310;2023-04-30T08:02:43;94952.66;;;11.85;76.37
75051;BME280;63628;47.656;11.310;2023-04-30T08:05:11;94952.25;;;12.50;74.95
75051;BME280;63628;47.656;11.310;2023-04-30T08:07:38;94960.47;;;12.65;74.17
75051;BME280;63628;47.656;11.310;2023-04-30T08:10:06;94959.72;;;12.36;74.41
75051;BME280;63628;47.656;11.310;2023-04-30T08:12:34;94958.91;;;12.07;75.99
75051;BME280;63628;47.656;11.310;2023-04-30T08:15:02;94958.84;;;11.16;77.93
75051;BME280;63628;47.656;11.310;2023-04-30T08:17:31;94959.31;;;10.89;79.14
75051;BME280;63628;47.656;11.310;2023-04-30T08:19:59;94955.91;;;11.52;78.39
75051;BME280;63628;47.656;11.310;2023-04-30T08:22:25;94954.50;;;12.13;75.70
75051;BME280;63628;47.656;11.310;2023-04-30T08:24:52;94958.25;;;11.37;78.30
75051;BME280;63628;47.656;11.310;2023-04-30T08:27:21;94949.00;;;12.31;75.61
75051;BME280;63628;47.656;11.310;2023-04-30T08:29:47;94948.16;;;11.86;74.31
75051;BME280;63628;47.656;11.310;2023-04-30T08:32:14;94948.78;;;12.50;75.30
75051;BME280;63628;47.656;11.310;2023-04-30T08:34:42;94945.66;;;12.36;74.75
75051;BME280;63628;47.656;11.310;2023-04-30T08:37:09;94951.56;;;12.26;75.85
75051;BME280;63628;47.656;11.310;2023-04-30T08:39:35;94950.94;;;11.67;76.22
75051;BME280;63628;47.656;11.310;2023-04-30T08:42:07;94960.00;;;11.95;76.22
75051;BME280;63628;47.656;11.310;2023-04-30T08:44:35;94950.25;;;12.41;75.07
75051;BME280;63628;47.656;11.310;2023-04-30T08:47:05;94963.28;;;12.14;74.90
75051;BME280;63628;47.656;11.310;2023-04-30T08:49:33;94956.69;;;12.16;75.32
75051;BME280;63628;47.656;11.310;2023-04-30T08:52:04;94945.84;;;11.89;75.32
75051;BME280;63628;47.656;11.310;2023-04-30T08:54:31;94949.47;;;12.28;75.20
75051;BME280;63628;47.656;11.310;2023-04-30T08:56:58;94940.66;;;12.40;75.20
75051;BME280;63628;47.656;11.310;2023-04-30T08:59:25;94944.06;;;12.23;74.82
75051;BME280;63628;47.656;11.310;2023-04-30T09:01:52;94939.72;;;12.62;74.88
75051;BME280;63628;47.656;11.310;2023-04-30T09:04:19;94941.72;;;12.72;74.74
75051;BME280;63628;47.656;11.310;2023-04-30T09:06:46;94942.22;;;13.19;72.07
75051;BME280;63628;47.656;11.310;2023-04-30T09:09:15;94945.19;;;13.06;72.63
75051;BME280;63628;47.656;11.310;2023-04-30T09:11:41;94940.88;;;13.39;71.36
75051;BME280;63628;47.656;11.310;2023-04-30T09:14:08;94939.69;;;14.17;69.63
75051;BME280;63628;47.656;11.310;2023-04-30T09:16:45;94938.03;;;15.39;69.66
75051;BME280;63628;47.656;11.310;2023-04-30T09:19:23;94938.59;;;14.99;67.16
75051;BME280;63628;47.656;11.310;2023-04-30T09:21:51;94944.13;;;13.84;70.88
75051;BME280;63628;47.656;11.310;2023-04-30T09:24:19;94943.47;;;13.55;73.17
75051;BME280;63628;47.656;11.310;2023-04-30T09:26:46;94931.41;;;13.48;71.92
75051;BME280;63628;47.656;11.310;2023-04-30T09:29:13;94933.50;;;13.07;72.09
75051;BME280;63628;47.656;11.310;2023-04-30T09:31:42;94936.13;;;13.62;69.85
75051;BME280;63628;47.656;11.310;2023-04-30T09:34:09;94933.19;;;13.20;71.92
75051;BME280;63628;47.656;11.310;2023-04-30T09:36:36;94940.59;;;13.79;72.36
75051;BME280;63628;47.656;11.310;2023-04-30T09:39:06;94933.31;;;13.30;71.19
75051;BME280;63628;47.656;11.310;2023-04-30T09:41:38;94931.59;;;13.41;71.77
75051;BME280;63628;47.656;11.310;2023-04-30T09:44:05;94932.59;;;13.57;72.17
75051;BME280;63628;47.656;11.310;2023-04-30T09:46:33;94927.72;;;13.92;71.14
75051;BME280;63628;47.656;11.310;2023-04-30T09:49:02;94922.59;;;14.67;65.41
75051;BME280;63628;47.656;11.310;2023-04-30T09:51:29;94921.59;;;14.73;67.31
75051;BME280;63628;47.656;11.310;2023-04-30T09:53:57;94923.13;;;13.88;68.78
75051;BME280;63628;47.656;11.310;2023-04-30T09:56:25;94919.13;;;13.63;67.86
75051;BME280;63628;47.656;11.310;2023-04-30T09:58:55;94915.44;;;14.40;67.98
75051;BME280;63628;47.656;11.310;2023-04-30T10:01:24;94920.88;;;14.50;67.60
75051;BME280;63628;47.656;11.310;2023-04-30T10:03:52;94914.41;;;14.19;70.56
75051;BME280;63628;47.656;11.310;2023-04-30T10:06:20;94910.75;;;13.55;71.98
75051;BME280;63628;47.656;11.310;2023-04-30T10:08:50;94913.00;;;13.41;73.21
75051;BME280;63628;47.656;11.310;2023-04-30T10:11:19;94904.53;;;16.26;66.76
75051;BME280;63628;47.656;11.310;2023-04-30T10:13:52;94894.00;;;15.83;68.48
75051;BME280;63628;47.656;11.310;2023-04-30T10:16:27;94892.25;;;16.45;65.58
75051;BME280;63628;47.656;11.310;2023-04-30T10:18:58;94891.75;;;16.73;62.92
75051;BME280;63628;47.656;11.310;2023-04-30T10:21:27;94889.25;;;16.06;63.35
75051;BME280;63628;47.656;11.310;2023-04-30T10:23:54;94885.50;;;16.12;62.53
75051;BME280;63628;47.656;11.310;2023-04-30T10:26:21;94890.41;;;16.71;61.81
75051;BME280;63628;47.656;11.310;2023-04-30T10:28:49;94880.78;;;17.10;63.10
75051;BME280;63628;47.656;11.310;2023-04-30T10:31:16;94873.00;;;15.45;58.83
75051;BME280;63628;47.656;11.310;2023-04-30T10:33:52;94877.81;;;16.26;61.10
75051;BME280;63628;47.656;11.310;2023-04-30T10:36:25;94872.50;;;16.66;61.10
75051;BME280;63628;47.656;11.310;2023-04-30T10:38:53;94878.56;;;16.01;62.46
75051;BME280;63628;47.656;11.310;2023-04-30T10:41:20;94871.06;;;15.88;63.63
75051;BME280;63628;47.656;11.310;2023-04-30T10:43:47;94868.16;;;16.04;65.38
75051;BME280;63628;47.656;11.310;2023-04-30T10:46:21;94876.38;;;15.88;63.24
75051;BME280;63628;47.656;11.310;2023-04-30T10:48:51;94874.81;;;14.92;67.29
75051;BME280;63628;47.656;11.310;2023-04-30T10:51:19;94870.50;;;15.28;63.80
75051;BME280;63628;47.656;11.310;2023-04-30T10:53:48;94868.91;;;15.27;64.30
75051;BME280;63628;47.656;11.310;2023-04-30T10:56:28;94862.22;;;15.19;64.40
75051;BME280;63628;47.656;11.310;2023-04-30T10:58:58;94872.63;;;15.21;63.42
75051;BME280;63628;47.656;11.310;2023-04-30T11:01:24;94867.53;;;15.19;63.90
75051;BME280;63628;47.656;11.310;2023-04-30T11:04:05;94872.84;;;15.14;64.14
75051;BME280;63628;47.656;11.310;2023-04-30T11:07:07;94864.69;;;15.41;64.25
75051;BME280;63628;47.656;11.310;2023-04-30T11:09:39;94861.41;;;15.71;64.57
75051;BME280;63628;47.656;11.310;2023-04-30T11:12:11;94855.56;;;15.84;63.40
75051;BME280;63628;47.656;11.310;2023-04-30T11:14:40;94859.94;;;15.48;64.35
75051;BME280;63628;47.656;11.310;2023-04-30T11:17:09;94852.88;;;15.22;64.28
75051;BME280;63628;47.656;11.310;2023-04-30T11:19:45;94843.06;;;15.33;63.22
75051;BME280;63628;47.656;11.310;2023-04-30T11:22:15;94850.19;;;15.12;65.60
75051;BME280;63628;47.656;11.310;2023-04-30T11:24:52;94849.28;;;14.96;65.72
75051;BME280;63628;47.656;11.310;2023-04-30T11:27:20;94848.19;;;15.49;63.82
75051;BME280;63628;47.656;11.310;2023-04-30T11:29:49;94846.00;;;15.31;61.53
75051;BME280;63628;47.656;11.310;2023-04-30T11:32:17;94845.13;;;15.78;61.87
75051;BME280;63628;47.656;11.310;2023-04-30T11:34:46;94843.50;;;15.62;64.05
75051;BME280;63628;47.656;11.310;2023-04-30T11:37:18;94841.97;;;15.96;62.61
75051;BME280;63628;47.656;11.310;2023-04-30T11:39:46;94843.44;;;14.99;66.40
75051;BME280;63628;47.656;11.310;2023-04-30T11:42:15;94836.31;;;15.72;62.26
75051;BME280;63628;47.656;11.310;2023-04-30T11:44:43;94835.84;;;15.28;65.13
75051;BME280;63628;47.656;11.310;2023-04-30T11:47:11;94833.00;;;15.50;63.99
75051;BME280;63628;47.656;11.310;2023-04-30T11:49:39;94822.19;;;15.77;62.75
75051;BME280;63628;47.656;11.310;2023-04-30T11:52:07;94826.44;;;15.63;61.40
75051;BME280;63628;47.656;11.310;2023-04-30T11:54:35;94829.00;;;15.52;64.77
75051;BME280;63628;47.656;11.310;2023-04-30T11:57:03;94827.53;;;15.19;64.99
75051;BME280;63628;47.656;11.310;2023-04-30T11:59:30;94824.63;;;15.21;65.36
75051;BME280;63628;47.656;11.310;2023-04-30T12:01:57;94821.66;;;15.12;64.31
75051;BME280;63628;47.656;11.310;2023-04-30T12:04:25;94825.97;;;15.23;65.13
75051;BME280;63628;47.656;11.310;2023-04-30T12:06:51;94821.66;;;15.12;64.56
75051;BME280;63628;47.656;11.310;2023-04-30T12:09:19;94822.72;;;15.11;65.63
75051;BME280;63628;47.656;11.310;2023-04-30T12:11:46;94824.28;;;15.02;64.87
75051;BME280;63628;47.656;11.310;2023-04-30T12:14:13;94818.41;;;15.05;63.43
75051;BME280;63628;47.656;11.310;2023-04-30T12:16:42;94827.47;;;15.04;66.28
75051;BME280;63628;47.656;11.310;2023-04-30T12:19:11;94823.72;;;15.00;65.45
75051;BME280;63628;47.656;11.310;2023-04-30T12:21:38;94824.00;;;15.04;64.97
75051;BME280;63628;47.656;11.310;2023-04-30T12:24:06;94816.00;;;15.04;65.45
75051;BME280;63628;47.656;11.310;2023-04-30T12:26:35;94815.44;;;14.97;66.03
75051;BME280;63628;47.656;11.310;2023-04-30T12:29:03;94817.19;;;14.81;66.37
75051;BME280;63628;47.656;11.310;2023-04-30T12:31:31;94815.53;;;14.70;66.04
75051;BME280;63628;47.656;11.310;2023-04-30T12:34:02;94814.34;;;14.50;66.54
75051;BME280;63628;47.656;11.310;2023-04-30T12:36:30;94810.53;;;14.41;66.52
75051;BME280;63628;47.656;11.310;2023-04-30T12:39:02;94808.81;;;14.57;65.35
75051;BME280;63628;47.656;11.310;2023-04-30T12:41:33;94809.94;;;14.71;64.78
75051;BME280;63628;47.656;11.310;2023-04-30T12:44:15;94799.91;;;14.88;65.17
75051;BME280;63628;47.656;11.310;2023-04-30T12:46:42;94806.06;;;14.94;66.30
75051;BME280;63628;47.656;11.310;2023-04-30T12:49:11;94798.13;;;14.99;66.10
75051;BME280;63628;47.656;11.310;2023-04-30T12:51:41;94791.75;;;15.00;65.29
75051;BME280;63628;47.656;11.310;2023-04-30T12:54:08;94788.81;;;15.02;64.24
75051;BME280;63628;47.656;11.310;2023-04-30T12:56:34;94792.75;;;14.94;65.46
75051;BME280;63628;47.656;11.310;2023-04-30T12:59:01;94789.22;;;14.78;65.73